Time;durP1;ratioP1;P1;durP2;ratioP2;P2;SDS_P1;SDS_P2;PMS_P1;PMS_P2;Temp;Humidity;BMP_temperature;BMP_pressure;BME280_temperature;BME280_humidity;BME280_pressure;Samples;Min_cycle;Max_cycle;Signal;HPM_P1;HPM_P2
2023/03/01 00:01:23;;;;;;;8.70;6.18;;;8.50;81.00;;;;;;10863243;32;20023;-72
2023/03/01 00:07:26;;;;;;;9.43;6.82;;;8.50;80.60;;;;;;10863130;32;20391;-72
2023/03/01 00:13:28;;;;;;;6.85;4.12;;;8.40;80.40;;;;;;10862417;32;20024;-72
2023/03/01 00:19:32;;;;;;;6.70;3.87;;;8.40;80.00;;;;;;10866679;27;20050;-72
2023/03/01 00:25:41;;;;;;;8.27;4.78;;;8.20;80.40;;;;;;10820081;33;20461;-72
2023/03/01 00:31:43;;;;;;;;;;;8.10;80.50;;;;;;10824571;33;20008;-72
2023/03/01 00:37:45;;;;;;;5.37;3.53;;;8.10;80.30;;;;;;10824155;33;20238;-72
2023/03/01 00:43:49;;;;;;;10.48;6.25;;;8.10;80.40;;;;;;10810936;33;20035;-72
2023/03/01 00:49:51;;;;;;;6.75;4.25;;;7.90;80.50;;;;;;10820549;33;20024;-72
2023/03/01 00:55:53;;;;;;;10.23;6.10;;;7.90;80.20;;;;;;10822421;33;20028;-72
2023/03/01 01:01:55;;;;;;;8.85;4.62;;;8.00;79.90;;;;;;10824917;32;20032;-72
2023/03/01 01:07:57;;;;;;;9.32;4.62;;;7.90;80.20;;;;;;10830752;33;20012;-72
2023/03/01 01:13:59;;;;;;;4.90;3.97;;;7.80;80.90;;;;;;10830376;33;20416;-72
2023/03/01 01:20:02;;;;;;;8.50;4.53;;;7.90;81.40;;;;;;10830601;32;20055;-72
2023/03/01 01:26:14;;;;;;;7.15;4.53;;;7.70;81.60;;;;;;10830659;33;20089;-72
2023/03/01 01:32:16;;;;;;;6.55;4.75;;;7.80;81.70;;;;;;10817530;32;20325;-72
2023/03/01 01:38:18;;;;;;;7.22;4.78;;;7.90;81.70;;;;;;10829682;33;20043;-72
2023/03/01 01:44:26;;;;;;;11.75;6.43;;;7.90;81.50;;;;;;10828031;33;20020;-72
2023/03/01 01:50:37;;;;;;;6.03;4.65;;;7.90;82.00;;;;;;10811451;33;20058;-72
2023/03/01 01:56:46;;;;;;;12.80;8.50;;;8.00;82.10;;;;;;10813299;32;20035;-72
2023/03/01 02:02:54;;;;;;;8.00;5.07;;;7.90;82.00;;;;;;10814995;33;20043;-72
2023/03/01 02:09:06;;;;;;;11.10;6.25;;;7.80;82.40;;;;;;10827562;33;20016;-72
2023/03/01 02:15:31;;;;;;;10.75;4.40;;;7.90;82.60;;;;;;10829071;32;20016;-72
2023/03/01 02:21:42;;;;;;;8.30;4.43;;;7.90;82.90;;;;;;10827756;33;20024;-72
2023/03/01 02:28:02;;;;;;;11.05;5.55;;;7.90;83.00;;;;;;10815233;33;20042;-73
2023/03/01 02:34:06;;;;;;;9.63;6.18;;;7.80;83.10;;;;;;10828232;33;20426;-72
2023/03/01 02:40:17;;;;;;;12.82;9.07;;;7.80;83.00;;;;;;10814891;33;20043;-72
2023/03/01 02:46:22;;;;;;;9.45;3.78;;;7.80;83.20;;;;;;10803048;32;20066;-72
2023/03/01 02:52:48;;;;;;;11.30;5.60;;;7.70;83.10;;;;;;10814144;33;20050;-72
2023/03/01 02:58:52;;;;;;;9.30;5.90;;;7.80;83.20;;;;;;10828033;33;20020;-72
2023/03/01 03:04:54;;;;;;;9.25;4.80;;;7.80;83.50;;;;;;10823257;33;20144;-72
2023/03/01 03:10:56;;;;;;;8.52;4.87;;;7.90;83.60;;;;;;10824630;33;20020;-72
2023/03/01 03:16:59;;;;;;;8.88;4.75;;;7.80;83.80;;;;;;10813518;33;20058;-72
2023/03/01 03:23:00;;;;;;;8.68;4.20;;;7.90;83.50;;;;;;10822997;33;20027;-72
2023/03/01 03:29:02;;;;;;;9.15;5.62;;;7.90;83.40;;;;;;10826091;32;20016;-72
2023/03/01 03:35:09;;;;;;;7.82;5.43;;;7.90;83.30;;;;;;10827011;33;20066;-72
2023/03/01 03:41:25;;;;;;;8.52;4.10;;;7.90;82.80;;;;;;10813683;33;20024;-72
2023/03/01 03:47:26;;;;;;;9.40;4.12;;;7.80;82.40;;;;;;10822261;33;20024;-72
2023/03/01 03:53:32;;;;;;;9.60;4.40;;;7.70;82.60;;;;;;10809790;33;20338;-72
2023/03/01 03:59:34;;;;;;;5.93;3.65;;;7.70;82.80;;;;;;10825845;33;20291;-72
2023/03/01 04:05:37;;;;;;;7.22;4.30;;;7.70;82.90;;;;;;10824916;33;20019;-72
2023/03/01 04:11:39;;;;;;;5.75;3.37;;;7.70;83.00;;;;;;10812044;33;20032;-72
2023/03/01 04:17:43;;;;;;;9.40;5.75;;;7.70;83.00;;;;;;10825280;33;20382;-72
2023/03/01 04:23:45;;;;;;;7.20;4.30;;;7.70;83.20;;;;;;10821878;33;20074;-72
2023/03/01 04:29:47;;;;;;;9.00;4.62;;;7.70;83.20;;;;;;10825012;33;20432;-72
2023/03/01 04:35:49;;;;;;;9.65;4.25;;;7.90;83.20;;;;;;10822409;33;20023;-72
2023/03/01 04:41:51;;;;;;;8.38;4.70;;;7.90;83.20;;;;;;10817619;33;20025;-72
2023/03/01 04:48:13;;;;;;;6.00;3.50;;;8.00;83.10;;;;;;10816936;33;20020;-72
2023/03/01 04:54:21;;;;;;;7.50;4.75;;;8.20;83.10;;;;;;10827647;33;20046;-72
2023/03/01 05:00:23;;;;;;;6.32;3.28;;;8.30;83.20;;;;;;10830884;33;20330;-72
2023/03/01 05:06:25;;;;;;;6.20;4.47;;;8.40;82.80;;;;;;10817408;32;20036;-72
2023/03/01 05:12:27;;;;;;;7.75;4.50;;;8.50;82.80;;;;;;10816868;33;20042;-72
2023/03/01 05:18:32;;;;;;;7.20;4.53;;;8.60;83.20;;;;;;10829931;33;20020;-72
2023/03/01 05:24:35;;;;;;;8.85;4.68;;;8.50;83.00;;;;;;10827904;33;20090;-72
2023/03/01 05:30:38;;;;;;;7.55;4.62;;;8.60;83.40;;;;;;10830599;33;20047;-72
2023/03/01 05:36:40;;;;;;;10.38;4.78;;;8.60;83.60;;;;;;10829311;33;20354;-72
2023/03/01 05:42:47;;;;;;;10.27;5.30;;;8.80;83.40;;;;;;10816073;33;20055;-72
2023/03/01 05:49:02;;;;;;;7.78;5.12;;;9.00;83.20;;;;;;10828995;32;20015;-73
2023/03/01 05:55:19;;;;;;;6.43;4.35;;;9.00;84.40;;;;;;10829791;33;20075;-72
2023/03/01 06:01:27;;;;;;;7.53;4.97;;;9.10;84.50;;;;;;10828531;33;20016;-72
2023/03/01 06:07:29;;;;;;;7.93;4.72;;;9.20;84.90;;;;;;10829556;33;20007;-72
2023/03/01 06:13:31;;;;;;;8.55;4.68;;;9.10;84.60;;;;;;10815547;33;20054;-72
2023/03/01 06:19:33;;;;;;;7.90;3.45;;;9.10;85.00;;;;;;10829646;32;20021;-72
2023/03/01 06:25:35;;;;;;;8.25;4.68;;;8.90;85.20;;;;;;10828287;33;20082;-72
2023/03/01 06:31:37;;;;;;;9.98;4.90;;;9.00;85.60;;;;;;10828238;33;20016;-72
2023/03/01 06:37:40;;;;;;;11.45;4.45;;;9.20;85.60;;;;;;10813236;33;20015;-72
2023/03/01 06:43:42;;;;;;;3.95;3.05;;;9.30;85.60;;;;;;10813250;33;20028;-72
2023/03/01 06:49:44;;;;;;;8.63;5.05;;;9.50;85.90;;;;;;10814547;32;20027;-72
2023/03/01 06:55:46;;;;;;;6.05;3.75;;;9.50;85.40;;;;;;10825236;33;20012;-72
2023/03/01 07:01:48;;;;;;;9.82;5.35;;;9.30;85.90;;;;;;10821884;32;20055;-73
2023/03/01 07:07:50;;;;;;;12.75;5.18;;;9.50;85.80;;;;;;10810435;32;20092;-73
2023/03/01 07:13:52;;;;;;;6.40;4.30;;;9.50;85.80;;;;;;10823836;33;20075;-73
2023/03/01 07:19:54;;;;;;;8.88;5.43;;;9.70;86.00;;;;;;10839758;32;20349;-73
2023/03/01 07:25:56;;;;;;;8.50;4.53;;;9.70;85.80;;;;;;10859394;32;20046;-73
2023/03/01 07:31:58;;;;;;;10.23;6.37;;;9.70;86.20;;;;;;10860046;32;20042;-73
2023/03/01 07:38:00;;;;;;;14.27;4.40;;;9.50;85.00;;;;;;10845358;32;20046;-73
2023/03/01 07:44:03;;;;;;;8.15;4.30;;;9.40;85.30;;;;;;10862338;32;20016;-73
2023/03/01 07:50:05;;;;;;;6.93;4.85;;;9.50;85.70;;;;;;10859830;32;20039;-73
2023/03/01 07:56:10;;;;;;;11.88;6.68;;;9.70;86.00;;;;;;10859936;32;20023;-73
2023/03/01 08:02:12;;;;;;;9.85;5.87;;;9.80;85.70;;;;;;10845415;32;20023;-73
2023/03/01 08:08:14;;;;;;;8.85;4.55;;;9.70;84.90;;;;;;10848761;32;20111;-74
2023/03/01 08:14:17;;;;;;;6.07;4.20;;;9.90;86.30;;;;;;10860791;32;20038;-73
2023/03/01 08:20:19;;;;;;;8.50;5.45;;;10.20;86.60;;;;;;10629332;27;7731346;-73
2023/03/01 08:26:21;;;;;;;10.25;6.43;;;10.40;86.40;;;;;;10810929;33;20050;-74
2023/03/01 08:32:43;;;;;;;11.02;6.12;;;10.50;85.80;;;;;;10812212;33;20024;-73
2023/03/01 08:38:45;;;;;;;12.60;6.57;;;10.30;85.70;;;;;;10824811;33;20074;-73
2023/03/01 08:44:47;;;;;;;6.12;3.87;;;10.20;85.60;;;;;;10821239;33;20027;-73
2023/03/01 08:50:49;;;;;;;16.75;6.15;;;10.20;85.20;;;;;;10823615;33;20021;-73
2023/03/01 08:57:20;;;;;;;7.05;4.68;;;10.30;84.20;;;;;;10811154;33;20020;-73
2023/03/01 09:03:23;;;;;;;12.00;6.25;;;10.40;83.90;;;;;;10811729;32;20381;-73
2023/03/01 09:09:25;;;;;;;8.73;5.45;;;10.90;85.00;;;;;;10811089;33;20060;-73
2023/03/01 09:15:27;;;;;;;13.50;6.25;;;11.20;84.10;;;;;;10820863;33;20389;-73
2023/03/01 09:21:51;;;;;;;7.12;3.90;;;11.20;83.50;;;;;;10811657;33;20029;-73
2023/03/01 09:27:54;;;;;;;5.10;3.15;;;11.10;84.40;;;;;;10828160;32;20020;-73
2023/03/01 09:33:56;;;;;;;6.65;4.00;;;11.30;85.50;;;;;;10815927;33;20058;-73
2023/03/01 09:39:59;;;;;;;9.10;4.82;;;11.30;84.00;;;;;;10823712;32;20036;-73
2023/03/01 09:46:06;;;;;;;11.70;4.95;;;11.20;83.50;;;;;;10791308;33;20029;-73
2023/03/01 09:52:48;;;;;;;8.50;6.18;;;11.40;82.60;;;;;;10793208;33;20021;-74
2023/03/01 09:59:06;;;;;;;37.20;8.18;;;11.40;81.00;;;;;;10791021;33;20059;-74
2023/03/01 10:05:19;;;;;;;25.25;7.18;;;11.40;79.80;;;;;;10791196;33;20028;-73
2023/03/01 10:11:38;;;;;;;9.07;5.57;;;11.40;79.30;;;;;;10791661;33;20055;-73
2023/03/01 10:17:43;;;;;;;8.45;6.22;;;11.40;80.00;;;;;;10792066;33;20024;-72
2023/03/01 10:23:46;;;;;;;8.70;5.32;;;11.40;79.10;;;;;;10796185;33;20059;-72
2023/03/01 10:30:02;;;;;;;8.00;5.18;;;11.30;80.20;;;;;;10826153;33;20382;-72
2023/03/01 10:36:05;;;;;;;12.10;6.62;;;11.30;78.60;;;;;;10797795;33;20032;-73
2023/03/01 10:42:27;;;;;;;11.27;7.00;;;11.20;75.60;;;;;;10789535;33;20028;-72
2023/03/01 10:48:29;;;;;;;10.35;5.53;;;11.20;77.80;;;;;;10788025;33;20051;-72
2023/03/01 10:54:33;;;;;;;22.83;6.65;;;11.10;74.60;;;;;;10790877;33;20047;-72
2023/03/01 11:01:08;;;;;;;10.60;5.37;;;11.00;74.70;;;;;;10789064;33;20054;-72
2023/03/01 11:07:11;;;;;;;12.40;5.85;;;10.80;72.40;;;;;;10815755;32;20039;-73
2023/03/01 11:13:20;;;;;;;15.32;5.60;;;10.90;72.70;;;;;;10828248;32;20042;-73
2023/03/01 11:19:22;;;;;;;11.73;6.13;;;10.70;74.00;;;;;;10828527;32;20055;-72
2023/03/01 11:25:34;;;;;;;9.65;5.80;;;10.60;72.60;;;;;;10828066;32;20459;-74
2023/03/01 11:31:37;;;;;;;19.92;5.60;;;10.50;73.70;;;;;;10828089;32;20040;-71
2023/03/01 11:37:39;;;;;;;15.57;5.60;;;10.60;73.40;;;;;;10827840;32;20043;-72
2023/03/01 11:43:54;;;;;;;14.38;6.78;;;10.50;73.00;;;;;;10800174;32;20342;-72
2023/03/01 11:50:21;;;;;;;11.18;6.00;;;10.60;73.90;;;;;;10787676;33;20017;-74
2023/03/01 11:56:26;;;;;;;12.02;5.18;;;10.60;74.80;;;;;;10789311;33;20024;-73
2023/03/01 12:02:54;;;;;;;10.60;5.12;;;10.60;74.90;;;;;;10789902;33;20416;-72
2023/03/01 12:09:12;;;;;;;13.90;7.50;;;10.60;75.60;;;;;;10797012;33;20032;-73
2023/03/01 12:15:46;;;;;;;14.35;6.30;;;10.70;76.30;;;;;;10807891;33;20062;-73
2023/03/01 12:22:04;;;;;;;7.55;5.05;;;10.70;75.90;;;;;;10809457;33;20338;-73
2023/03/01 12:28:35;;;;;;;16.90;13.15;;;10.70;75.80;;;;;;10823172;33;20020;-73
2023/03/01 12:34:47;;;;;;;12.30;6.62;;;10.70;75.90;;;;;;10825061;33;20024;-72
2023/03/01 12:41:26;;;;;;;7.82;4.85;;;10.60;73.80;;;;;;10820840;33;20023;-72
2023/03/01 12:47:45;;;;;;;13.83;5.20;;;10.60;74.60;;;;;;10824324;33;20394;-72
2023/03/01 12:53:49;;;;;;;8.30;5.00;;;10.50;73.70;;;;;;10824719;33;20035;-72
2023/03/01 13:00:27;;;;;;;8.43;4.62;;;10.50;74.20;;;;;;10812026;32;20345;-73
2023/03/01 13:07:10;;;;;;;13.00;5.75;;;10.50;74.30;;;;;;10826562;33;20023;-73
2023/03/01 13:13:19;;;;;;;11.80;5.87;;;10.50;73.00;;;;;;10829434;33;20295;-72
2023/03/01 13:19:24;;;;;;;7.12;4.30;;;10.50;75.20;;;;;;10830318;33;20016;-72
2023/03/01 13:25:26;;;;;;;12.10;5.40;;;10.60;75.90;;;;;;10827381;33;20016;-73
2023/03/01 13:31:28;;;;;;;12.63;5.53;;;10.70;74.60;;;;;;10830482;33;20020;-72
2023/03/01 13:37:37;;;;;;;12.50;4.50;;;10.70;77.60;;;;;;10830392;33;20382;-73
2023/03/01 13:43:42;;;;;;;10.67;6.13;;;10.70;76.70;;;;;;10830145;33;20066;-72
2023/03/01 13:49:51;;;;;;;12.35;6.10;;;10.70;76.90;;;;;;10828600;33;20370;-72
2023/03/01 13:56:13;;;;;;;;;;;10.60;76.30;;;;;;10829497;33;20032;-72
2023/03/01 14:02:17;;;;;;;7.82;4.18;;;10.60;76.30;;;;;;10828872;33;19963;-72
2023/03/01 14:08:25;;;;;;;14.35;6.25;;;10.70;76.20;;;;;;10816408;33;20039;-72
2023/03/01 14:14:33;;;;;;;7.40;4.57;;;10.70;75.30;;;;;;10826884;32;20050;-73
2023/03/01 14:20:41;;;;;;;11.13;3.60;;;10.90;78.20;;;;;;10815741;33;20082;-73
2023/03/01 14:26:44;;;;;;;7.25;4.25;;;11.30;79.30;;;;;;10816400;33;20337;-72
2023/03/01 14:32:54;;;;;;;11.07;6.75;;;11.70;79.70;;;;;;10827451;33;20051;-73
2023/03/01 14:39:04;;;;;;;7.00;4.68;;;11.70;81.50;;;;;;10814701;33;20043;-72
2023/03/01 14:45:09;;;;;;;8.52;4.68;;;11.70;81.60;;;;;;10787604;33;20060;-72
2023/03/01 14:51:12;;;;;;;8.13;5.10;;;11.80;81.80;;;;;;10779114;33;20024;-72
2023/03/01 14:57:24;;;;;;;10.10;4.50;;;11.90;81.70;;;;;;10787456;33;20016;-72
2023/03/01 15:03:37;;;;;;;9.93;4.65;;;11.90;81.90;;;;;;10788439;33;20063;-72
2023/03/01 15:09:41;;;;;;;6.47;3.83;;;11.70;80.30;;;;;;10776377;33;20425;-72
2023/03/01 15:15:46;;;;;;;12.30;7.80;;;11.70;80.40;;;;;;10773915;33;20403;-72
2023/03/01 15:21:50;;;;;;;5.60;3.85;;;11.70;78.30;;;;;;10787173;33;20020;-72
2023/03/01 15:27:54;;;;;;;8.27;3.97;;;11.50;78.80;;;;;;10789490;33;20036;-73
2023/03/01 15:34:23;;;;;;;7.37;4.32;;;11.50;79.10;;;;;;10787624;33;20389;-71
2023/03/01 15:40:31;;;;;;;6.90;4.65;;;11.20;78.40;;;;;;10788863;33;20086;-71
2023/03/01 15:46:37;;;;;;;6.10;3.67;;;11.00;76.00;;;;;;10777199;33;20051;-71
2023/03/01 15:52:51;;;;;;;7.85;4.05;;;10.80;77.50;;;;;;10789026;33;20024;-73
2023/03/01 15:58:58;;;;;;;5.47;3.22;;;10.70;78.10;;;;;;10788485;33;20020;-71
2023/03/01 16:05:00;;;;;;;4.32;3.33;;;10.70;78.50;;;;;;10787713;33;20064;-71
2023/03/01 16:11:04;;;;;;;7.45;4.25;;;10.50;77.30;;;;;;10787736;33;20017;-74
2023/03/01 16:17:09;;;;;;;6.75;4.22;;;10.20;78.00;;;;;;10787791;33;20082;-74
2023/03/01 16:23:11;;;;;;;6.50;4.00;;;9.80;78.70;;;;;;10910061;27;20053;-73
2023/03/01 16:29:36;;;;;;;7.80;4.55;;;9.60;80.60;;;;;;10979761;32;20041;-73
2023/03/01 16:35:43;;;;;;;15.02;5.10;;;9.70;81.40;;;;;;10977726;32;20031;-73
2023/03/01 16:41:46;;;;;;;6.75;4.70;;;9.80;82.50;;;;;;10976041;32;20293;-71
2023/03/01 16:47:48;;;;;;;10.07;4.93;;;10.10;82.90;;;;;;10978186;32;20057;-73
2023/03/01 16:53:51;;;;;;;6.43;3.22;;;10.20;82.70;;;;;;10979678;32;20042;-74
2023/03/01 16:59:53;;;;;;;3.37;2.30;;;10.30;83.20;;;;;;10979332;32;20027;-72
2023/03/01 17:05:55;;;;;;;7.25;3.05;;;10.70;83.40;;;;;;10979989;32;20026;-71
2023/03/01 17:12:23;;;;;;;4.93;3.45;;;10.60;83.40;;;;;;10979487;32;20053;-71
2023/03/01 17:18:25;;;;;;;8.02;4.30;;;10.60;83.60;;;;;;10979464;32;20049;-73
2023/03/01 17:24:27;;;;;;;8.93;5.12;;;10.40;82.10;;;;;;10849533;32;20089;-74
2023/03/01 17:30:29;;;;;;;6.22;4.20;;;10.10;81.40;;;;;;10823222;33;20038;-73
2023/03/01 17:36:33;;;;;;;7.85;5.53;;;9.70;81.20;;;;;;10842529;32;20053;-73
2023/03/01 17:42:47;;;;;;;5.50;3.40;;;9.50;81.40;;;;;;10858919;32;20042;-73
2023/03/01 17:48:49;;;;;;;5.85;3.37;;;9.30;81.60;;;;;;10898131;32;20050;-73
2023/03/01 17:54:51;;;;;;;4.18;3.30;;;9.30;82.70;;;;;;10859283;32;20019;-73
2023/03/01 18:00:53;;;;;;;5.60;2.83;;;9.30;82.80;;;;;;10866978;32;20016;-73
2023/03/01 18:06:57;;;;;;;5.72;3.72;;;9.50;84.00;;;;;;10865958;32;20349;-73
2023/03/01 18:12:59;;;;;;;5.62;3.45;;;9.50;84.00;;;;;;10866100;32;20020;-72
2023/03/01 18:19:02;;;;;;;4.57;3.22;;;9.60;84.30;;;;;;10865936;32;20028;-73
2023/03/01 18:25:05;;;;;;;5.53;3.58;;;9.70;84.90;;;;;;10865154;32;20361;-73
2023/03/01 18:31:12;;;;;;;5.47;3.35;;;9.60;84.30;;;;;;10866070;32;20016;-73
2023/03/01 18:37:17;;;;;;;7.45;4.20;;;9.60;85.20;;;;;;10864726;32;20015;-71
2023/03/01 18:43:19;;;;;;;8.48;5.43;;;9.70;85.30;;;;;;10917404;32;20037;-73
2023/03/01 18:49:22;;;;;;;3.10;2.65;;;9.60;84.70;;;;;;10865671;32;20015;-73
2023/03/01 18:55:24;;;;;;;7.53;4.07;;;9.60;85.70;;;;;;10864118;32;20016;-73
2023/03/01 19:01:28;;;;;;;5.00;3.22;;;9.70;85.60;;;;;;10864629;32;20045;-73
2023/03/01 19:07:30;;;;;;;7.78;4.97;;;9.70;85.70;;;;;;10912888;32;20345;-73
2023/03/01 19:13:36;;;;;;;5.93;4.25;;;10.00;86.20;;;;;;10864259;32;20042;-73
2023/03/01 19:19:38;;;;;;;14.32;4.72;;;10.00;86.20;;;;;;10866502;32;20016;-73
2023/03/01 19:25:40;;;;;;;6.25;3.87;;;9.80;85.50;;;;;;11019474;32;20045;-74
2023/03/01 19:31:42;;;;;;;7.10;4.37;;;9.70;86.20;;;;;;11019041;32;20006;-73
2023/03/01 19:37:44;;;;;;;4.12;3.22;;;9.70;85.90;;;;;;11018765;32;20032;-74
2023/03/01 19:43:48;;;;;;;6.20;3.42;;;9.60;85.70;;;;;;11019341;32;20010;-75
2023/03/01 19:49:56;;;;;;;6.72;3.58;;;9.60;85.70;;;;;;11019246;32;20057;-73
2023/03/01 19:56:02;;;;;;;7.72;4.10;;;9.40;85.50;;;;;;11017702;32;20009;-74
2023/03/01 20:02:05;;;;;;;6.07;2.42;;;9.30;85.60;;;;;;10998460;32;20052;-74
2023/03/01 20:08:08;;;;;;;5.32;3.28;;;9.30;85.30;;;;;;10978176;32;20069;-74
2023/03/01 20:14:11;;;;;;;6.32;3.30;;;9.30;85.10;;;;;;10977005;32;20317;-73
2023/03/01 20:20:14;;;;;;;3.53;1.85;;;9.20;84.50;;;;;;10975141;32;20049;-74
2023/03/01 20:26:18;;;;;;;6.25;3.20;;;9.20;85.00;;;;;;10980837;32;20376;-74
2023/03/01 20:32:21;;;;;;;6.62;3.45;;;9.20;84.60;;;;;;10979897;32;20007;-74
2023/03/01 20:38:25;;;;;;;5.10;2.85;;;9.30;85.50;;;;;;10979931;32;20015;-73
2023/03/01 20:44:27;;;;;;;5.43;2.87;;;9.30;86.00;;;;;;10979163;32;20091;-73
2023/03/01 20:50:29;;;;;;;6.32;2.92;;;9.30;84.80;;;;;;10979812;32;20053;-74
2023/03/01 20:56:32;;;;;;;6.30;3.78;;;9.30;85.10;;;;;;10979592;32;20015;-74
2023/03/01 21:02:40;;;;;;;12.80;5.65;;;9.30;85.50;;;;;;10978959;32;20015;-73
2023/03/01 21:08:42;;;;;;;9.50;4.60;;;9.30;85.60;;;;;;10979421;32;20427;-73
2023/03/01 21:14:46;;;;;;;6.30;3.67;;;9.40;86.00;;;;;;10979999;32;20015;-73
2023/03/01 21:20:48;;;;;;;8.45;4.30;;;9.40;86.10;;;;;;10946845;32;20020;-73
2023/03/01 21:26:50;;;;;;;7.10;3.95;;;9.50;86.80;;;;;;10830198;33;20056;-74
2023/03/01 21:32:52;;;;;;;7.20;4.82;;;9.70;86.80;;;;;;10830273;33;20042;-74
2023/03/01 21:38:55;;;;;;;7.80;4.53;;;9.70;86.80;;;;;;10829470;33;20008;-74
2023/03/01 21:44:57;;;;;;;4.55;2.87;;;9.90;87.00;;;;;;10828746;33;20055;-73
2023/03/01 21:51:01;;;;;;;6.35;2.67;;;9.80;86.60;;;;;;10826400;33;20322;-73
2023/03/01 21:57:03;;;;;;;4.18;2.55;;;9.90;86.70;;;;;;10830619;33;20038;-73
2023/03/01 22:03:05;;;;;;;4.75;3.08;;;9.90;86.70;;;;;;10829292;33;20047;-73
2023/03/01 22:09:12;;;;;;;6.18;4.20;;;10.00;86.80;;;;;;10829212;33;20565;-74
2023/03/01 22:15:25;;;;;;;5.90;3.53;;;10.20;87.00;;;;;;10829771;33;20053;-74
2023/03/01 22:21:28;;;;;;;5.55;3.08;;;10.20;86.70;;;;;;10827723;33;20097;-74
2023/03/01 22:27:30;;;;;;;5.12;3.25;;;10.20;86.90;;;;;;10827080;33;20401;-74
2023/03/01 22:33:32;;;;;;;4.97;2.62;;;10.30;87.00;;;;;;10827427;32;20019;-74
2023/03/01 22:39:35;;;;;;;5.62;3.40;;;10.40;86.80;;;;;;10879527;32;20020;-74
2023/03/01 22:45:38;;;;;;;4.62;3.33;;;10.40;86.90;;;;;;10827840;33;20081;-74
2023/03/01 22:51:41;;;;;;;5.87;3.45;;;10.30;87.20;;;;;;10827969;33;20342;-73
2023/03/01 22:57:44;;;;;;;7.00;3.90;;;10.40;87.20;;;;;;10824328;33;20024;-73
2023/03/01 23:03:47;;;;;;;7.45;3.92;;;10.30;87.10;;;;;;10828082;33;20055;-73
2023/03/01 23:09:49;;;;;;;4.07;2.45;;;10.30;87.20;;;;;;10828031;33;20400;-73
2023/03/01 23:15:53;;;;;;;3.95;2.22;;;10.20;87.10;;;;;;10827186;33;20342;-73
2023/03/01 23:21:56;;;;;;;4.22;2.58;;;10.30;87.20;;;;;;10827109;33;20046;-73
2023/03/01 23:27:58;;;;;;;4.12;2.35;;;10.30;87.10;;;;;;10874620;32;20071;-74
2023/03/01 23:34:00;;;;;;;4.18;2.22;;;10.30;86.90;;;;;;10876909;32;20032;-74
2023/03/01 23:40:05;;;;;;;3.58;2.47;;;10.40;87.00;;;;;;10827204;33;20012;-74
2023/03/01 23:46:08;;;;;;;2.20;1.95;;;10.50;86.80;;;;;;10826167;32;20055;-74
2023/03/01 23:52:12;;;;;;;3.28;2.20;;;10.50;86.80;;;;;;10876978;32;20387;-74
2023/03/01 23:58:14;;;;;;;3.75;2.50;;;10.40;86.40;;;;;;10873429;32;20027;-74
